Time;durP1;ratioP1;P1;durP2;ratioP2;P2;SDS_P1;SDS_P2;PMS_P1;PMS_P2;Temp;Humidity;BMP_temperature;BMP_pressure;BME280_temperature;BME280_humidity;BME280_pressure;Samples;Min_cycle;Max_cycle;Signal;HPM_P1;HPM_P2
2023/08/27 00:01:00;;;;;;;2.72;0.95;;;19.10;99.90;;;;;;5095247;28;20431;-67
2023/08/27 00:03:26;;;;;;;2.92;1.02;;;19.10;99.90;;;;;;5078172;28;20028;-67
2023/08/27 00:05:51;;;;;;;6.05;0.93;;;19.10;99.90;;;;;;5095540;28;20431;-68
2023/08/27 00:08:17;;;;;;;3.53;1.10;;;19.10;99.90;;;;;;5095513;28;20024;-67
2023/08/27 00:10:42;;;;;;;2.10;1.17;;;19.10;99.90;;;;;;5094260;28;20031;-67
2023/08/27 00:13:08;;;;;;;5.63;1.15;;;19.10;99.90;;;;;;5077580;28;20073;-68
2023/08/27 00:15:34;;;;;;;3.53;0.98;;;19.20;99.90;;;;;;5095339;28;20055;-68
2023/08/27 00:17:59;;;;;;;2.28;1.30;;;19.20;99.90;;;;;;5095598;28;20038;-67
2023/08/27 00:20:25;;;;;;;3.78;1.20;;;19.20;99.90;;;;;;5077083;28;20366;-67
2023/08/27 00:22:51;;;;;;;2.10;1.00;;;19.20;99.90;;;;;;5094987;28;20024;-67
2023/08/27 00:25:16;;;;;;;3.22;1.40;;;19.20;99.90;;;;;;5095217;28;20047;-67
2023/08/27 00:27:42;;;;;;;3.85;1.20;;;19.20;99.90;;;;;;5095188;28;20020;-67
2023/08/27 00:30:09;;;;;;;2.92;1.13;;;19.20;99.90;;;;;;5077588;28;20097;-67
2023/08/27 00:32:35;;;;;;;2.95;1.30;;;;;;;;;;5095400;28;20025;-68
2023/08/27 00:35:03;;;;;;;1.30;1.20;;;19.30;99.90;;;;;;5095236;28;20122;-68
2023/08/27 00:37:29;;;;;;;5.17;1.70;;;19.30;99.90;;;;;;5095279;28;20103;-68
2023/08/27 00:39:55;;;;;;;2.15;1.10;;;19.30;99.90;;;;;;5094998;28;20115;-67
2023/08/27 00:42:20;;;;;;;1.10;1.00;;;19.30;99.90;;;;;;5095332;28;20036;-67
2023/08/27 00:44:47;;;;;;;1.50;1.20;;;19.30;99.90;;;;;;5093727;28;20024;-67
2023/08/27 00:47:15;;;;;;;3.83;1.17;;;19.30;99.90;;;;;;5094861;28;20063;-67
2023/08/27 00:49:42;;;;;;;3.88;1.30;;;19.30;99.90;;;;;;5094609;28;20052;-67
2023/08/27 00:52:09;;;;;;;2.92;1.20;;;19.30;99.90;;;;;;5094674;28;20016;-67
2023/08/27 00:54:35;;;;;;;5.63;1.50;;;19.40;99.90;;;;;;5094640;28;20021;-67
2023/08/27 00:57:03;;;;;;;2.97;1.10;;;19.40;99.90;;;;;;5094451;28;20066;-67
2023/08/27 00:59:29;;;;;;;2.33;1.50;;;19.50;99.90;;;;;;5076898;28;20359;-68
2023/08/27 01:01:55;;;;;;;2.92;1.50;;;19.50;99.90;;;;;;5076412;28;20045;-68
2023/08/27 01:04:21;;;;;;;4.90;1.50;;;19.50;99.90;;;;;;5094745;28;20110;-67
2023/08/27 01:06:46;;;;;;;3.88;1.70;;;19.50;99.90;;;;;;5094295;28;20491;-68
2023/08/27 01:09:24;;;;;;;2.90;1.30;;;19.50;99.90;;;;;;5093139;28;20031;-67
2023/08/27 01:11:58;;;;;;;4.05;1.35;;;19.60;99.90;;;;;;5094743;28;20477;-68
2023/08/27 01:14:29;;;;;;;6.40;1.33;;;19.50;99.90;;;;;;5094733;28;20085;-68
2023/08/27 01:16:59;;;;;;;2.90;1.17;;;19.50;99.90;;;;;;5095725;28;20024;-68
2023/08/27 01:19:26;;;;;;;2.30;1.45;;;19.60;99.90;;;;;;5077169;28;20470;-68
2023/08/27 01:21:51;;;;;;;2.05;1.30;;;19.50;99.90;;;;;;5095130;28;20099;-68
2023/08/27 01:24:17;;;;;;;3.47;1.25;;;19.60;99.90;;;;;;5094983;28;20047;-67
2023/08/27 01:26:48;;;;;;;3.55;1.33;;;19.60;99.90;;;;;;5094584;28;20099;-68
2023/08/27 01:29:28;;;;;;;3.78;1.50;;;19.50;99.90;;;;;;5093837;28;20077;-68
2023/08/27 01:32:29;;;;;;;2.35;1.27;;;19.50;99.90;;;;;;5093944;28;20389;-68
2023/08/27 01:34:56;;;;;;;5.63;1.77;;;19.60;99.90;;;;;;5040517;28;20063;-67
2023/08/27 01:37:22;;;;;;;3.28;1.48;;;19.60;99.90;;;;;;5093739;28;20028;-67
2023/08/27 01:40:08;;;;;;;2.47;1.33;;;19.60;99.90;;;;;;5075702;28;20036;-67
2023/08/27 01:42:35;;;;;;;5.20;1.60;;;19.60;99.90;;;;;;5094311;28;20032;-67
2023/08/27 01:45:03;;;;;;;3.33;1.55;;;19.50;99.90;;;;;;5094134;28;20032;-68
2023/08/27 01:47:29;;;;;;;2.42;1.40;;;19.50;99.90;;;;;;5076197;28;20470;-67
2023/08/27 01:49:55;;;;;;;3.15;1.30;;;19.40;99.90;;;;;;5075629;28;20093;-67
2023/08/27 01:52:21;;;;;;;3.17;2.00;;;19.40;99.90;;;;;;5093546;28;20028;-67
2023/08/27 01:54:47;;;;;;;1.90;1.42;;;19.30;99.90;;;;;;5093605;28;20032;-67
2023/08/27 01:57:12;;;;;;;2.70;1.42;;;19.30;99.90;;;;;;5093864;28;20047;-67
2023/08/27 01:59:38;;;;;;;4.13;1.45;;;19.20;99.90;;;;;;5075613;28;20128;-67
2023/08/27 02:02:04;;;;;;;1.52;1.05;;;19.10;99.90;;;;;;5093496;28;20433;-68
2023/08/27 02:04:29;;;;;;;1.80;1.52;;;19.10;99.90;;;;;;5075852;28;20567;-67
2023/08/27 02:06:55;;;;;;;2.72;1.35;;;19.10;99.90;;;;;;5076051;28;20032;-67
2023/08/27 02:09:20;;;;;;;1.63;1.48;;;19.00;99.90;;;;;;5075670;28;20028;-67
2023/08/27 02:11:46;;;;;;;3.60;1.80;;;19.00;99.90;;;;;;5094052;28;20020;-67
2023/08/27 02:14:12;;;;;;;2.03;1.50;;;18.90;99.90;;;;;;5093353;28;20059;-67
2023/08/27 02:16:38;;;;;;;2.22;1.67;;;18.90;99.90;;;;;;5092336;28;20027;-67
2023/08/27 02:19:04;;;;;;;3.30;1.73;;;18.90;99.90;;;;;;5093516;28;20032;-67
2023/08/27 02:21:29;;;;;;;4.90;1.48;;;18.90;99.90;;;;;;5093532;28;20107;-67
2023/08/27 02:23:55;;;;;;;4.85;1.67;;;18.90;99.90;;;;;;5093703;28;20039;-67
2023/08/27 02:26:21;;;;;;;4.88;1.42;;;18.90;99.90;;;;;;5079368;28;20024;-67
2023/08/27 02:28:47;;;;;;;3.28;1.77;;;18.90;99.90;;;;;;5095941;28;20480;-68
2023/08/27 02:31:13;;;;;;;3.65;1.75;;;18.80;99.90;;;;;;5097462;28;20023;-67
2023/08/27 02:33:39;;;;;;;3.67;2.17;;;18.80;99.90;;;;;;5079251;28;20480;-67
2023/08/27 02:36:05;;;;;;;3.30;1.50;;;18.80;99.90;;;;;;5097176;28;20028;-67
2023/08/27 02:38:31;;;;;;;2.35;1.63;;;18.70;99.90;;;;;;5079014;28;20020;-67
2023/08/27 02:40:57;;;;;;;4.95;1.73;;;18.70;99.90;;;;;;5097580;28;20105;-67
2023/08/27 02:43:23;;;;;;;4.15;1.60;;;18.70;99.90;;;;;;5097463;28;20056;-67
2023/08/27 02:45:48;;;;;;;2.00;1.20;;;18.60;99.90;;;;;;5079235;28;20020;-67
2023/08/27 02:48:14;;;;;;;3.78;1.48;;;18.60;99.90;;;;;;5078792;28;20051;-67
2023/08/27 02:50:39;;;;;;;3.95;2.70;;;18.50;99.90;;;;;;5078821;28;20044;-67
2023/08/27 02:53:05;;;;;;;2.40;1.40;;;18.50;99.90;;;;;;5097045;28;20031;-67
2023/08/27 02:55:31;;;;;;;2.75;1.30;;;18.50;99.90;;;;;;5078749;28;20028;-67
2023/08/27 02:57:58;;;;;;;4.38;1.70;;;18.40;99.90;;;;;;5078698;28;20020;-67
2023/08/27 03:00:25;;;;;;;2.42;1.63;;;18.40;99.90;;;;;;5079031;28;20080;-67
2023/08/27 03:02:51;;;;;;;2.88;1.30;;;18.30;99.90;;;;;;5096905;28;20032;-67
2023/08/27 03:05:17;;;;;;;3.58;1.40;;;18.30;99.90;;;;;;5078961;28;20028;-67
2023/08/27 03:07:43;;;;;;;4.50;2.00;;;18.20;99.90;;;;;;5096628;28;20028;-68
2023/08/27 03:10:09;;;;;;;3.10;1.55;;;18.30;99.90;;;;;;5078352;28;20193;-67
2023/08/27 03:12:34;;;;;;;3.25;1.67;;;18.20;99.90;;;;;;5096665;28;20020;-67
2023/08/27 03:15:00;;;;;;;4.00;1.70;;;18.20;99.90;;;;;;5096933;28;20358;-67
2023/08/27 03:17:26;;;;;;;2.53;1.25;;;18.10;99.90;;;;;;5096632;28;20390;-67
2023/08/27 03:19:51;;;;;;;3.88;1.60;;;18.10;99.90;;;;;;5078668;28;20032;-68
2023/08/27 03:22:17;;;;;;;3.10;1.45;;;18.10;99.90;;;;;;5078530;28;20382;-67
2023/08/27 03:24:43;;;;;;;2.67;2.13;;;18.10;99.90;;;;;;5096456;28;20628;-67
2023/08/27 03:27:09;;;;;;;6.68;1.60;;;18.00;99.90;;;;;;5096707;28;20035;-67
2023/08/27 03:29:34;;;;;;;3.08;1.70;;;18.00;99.90;;;;;;5096347;28;20034;-67
2023/08/27 03:32:00;;;;;;;2.90;1.75;;;18.00;99.90;;;;;;5096502;28;20362;-67
2023/08/27 03:34:26;;;;;;;3.40;1.77;;;17.90;99.90;;;;;;5096607;28;20020;-67
2023/08/27 03:36:51;;;;;;;2.67;1.70;;;17.90;99.90;;;;;;5096256;28;20028;-68
2023/08/27 03:39:17;;;;;;;3.35;2.15;;;17.90;99.90;;;;;;5097202;28;20028;-68
2023/08/27 03:41:43;;;;;;;4.13;1.70;;;17.80;99.90;;;;;;5078662;28;20033;-67
2023/08/27 03:44:09;;;;;;;3.40;1.65;;;17.80;99.90;;;;;;5096517;28;20028;-68
2023/08/27 03:46:34;;;;;;;1.30;1.20;;;17.80;99.90;;;;;;5095918;28;20028;-67
2023/08/27 03:49:00;;;;;;;3.53;1.65;;;17.70;99.90;;;;;;5096049;28;20110;-67
2023/08/27 03:51:28;;;;;;;3.83;1.70;;;17.70;99.90;;;;;;5077617;28;20131;-67
2023/08/27 03:53:55;;;;;;;4.72;2.08;;;17.60;99.90;;;;;;5078376;28;20024;-67
2023/08/27 03:56:21;;;;;;;5.03;1.73;;;17.60;99.90;;;;;;5095578;28;20397;-67
2023/08/27 03:58:47;;;;;;;4.57;1.60;;;17.60;99.90;;;;;;5095689;28;20024;-67
2023/08/27 04:01:13;;;;;;;3.15;1.67;;;17.60;99.90;;;;;;5094424;28;20035;-68
2023/08/27 04:03:38;;;;;;;2.47;1.45;;;17.60;99.90;;;;;;5095745;28;20020;-67
2023/08/27 04:06:07;;;;;;;5.63;1.85;;;17.60;99.90;;;;;;5095803;28;20078;-67
2023/08/27 04:08:33;;;;;;;4.18;1.80;;;17.60;99.90;;;;;;5095247;28;20419;-67
2023/08/27 04:11:00;;;;;;;2.17;1.67;;;17.60;99.90;;;;;;5095525;28;20055;-67
2023/08/27 04:13:26;;;;;;;3.20;1.63;;;17.60;99.90;;;;;;5077490;28;20423;-67
2023/08/27 04:16:06;;;;;;;4.45;1.45;;;17.60;99.90;;;;;;5077717;28;20028;-67
2023/08/27 04:18:33;;;;;;;5.95;1.80;;;17.60;99.90;;;;;;5077246;28;20073;-67
2023/08/27 04:20:59;;;;;;;1.80;1.63;;;17.60;99.90;;;;;;5095446;28;20036;-68
2023/08/27 04:23:25;;;;;;;2.83;1.48;;;17.60;99.90;;;;;;5095563;28;20056;-68
2023/08/27 04:25:50;;;;;;;1.88;1.73;;;17.60;99.90;;;;;;5095332;28;20067;-67
2023/08/27 04:28:16;;;;;;;2.10;1.88;;;17.60;99.90;;;;;;5076945;28;20031;-67
2023/08/27 04:30:49;;;;;;;5.45;2.20;;;17.60;99.90;;;;;;5094958;28;20032;-67
2023/08/27 04:33:17;;;;;;;2.35;1.80;;;17.60;99.90;;;;;;5077162;28;20028;-67
2023/08/27 04:35:47;;;;;;;2.30;1.35;;;17.60;99.90;;;;;;5095246;28;20031;-67
2023/08/27 04:38:13;;;;;;;4.32;1.55;;;17.60;99.90;;;;;;5095347;28;20024;-66
2023/08/27 04:40:39;;;;;;;2.47;1.60;;;17.70;99.90;;;;;;5095423;28;20049;-67
2023/08/27 04:43:04;;;;;;;5.25;2.17;;;17.70;99.90;;;;;;5102061;28;20055;-70
2023/08/27 04:45:30;;;;;;;3.50;1.92;;;17.70;99.90;;;;;;5101515;28;20032;-68
2023/08/27 04:47:56;;;;;;;3.25;1.42;;;17.80;99.90;;;;;;5102010;28;20028;-67
2023/08/27 04:50:21;;;;;;;3.95;1.80;;;17.80;99.90;;;;;;5077672;28;20489;-67
2023/08/27 04:52:47;;;;;;;2.75;1.65;;;17.90;99.90;;;;;;5094855;28;20127;-67
2023/08/27 04:55:12;;;;;;;6.68;2.00;;;18.00;99.90;;;;;;5094453;28;20362;-67
2023/08/27 04:57:38;;;;;;;5.85;1.73;;;18.00;99.90;;;;;;5076466;28;20032;-67
2023/08/27 05:00:13;;;;;;;4.72;1.67;;;18.10;99.90;;;;;;5094730;28;20028;-67
2023/08/27 05:02:38;;;;;;;1.92;1.35;;;18.20;99.90;;;;;;5076444;28;20028;-67
2023/08/27 05:05:05;;;;;;;2.70;1.73;;;18.30;99.90;;;;;;5094400;28;20039;-67
2023/08/27 05:07:31;;;;;;;3.13;1.52;;;18.40;99.90;;;;;;5094687;28;20032;-67
2023/08/27 05:09:57;;;;;;;3.13;1.73;;;18.60;99.90;;;;;;5094487;28;20024;-67
2023/08/27 05:12:22;;;;;;;2.78;1.70;;;18.70;99.90;;;;;;5076186;28;20073;-67
2023/08/27 05:14:48;;;;;;;2.50;1.60;;;18.80;99.90;;;;;;5094692;28;20027;-63
2023/08/27 05:17:14;;;;;;;3.65;1.55;;;18.90;99.90;;;;;;5076154;28;20024;-64
2023/08/27 05:19:39;;;;;;;2.03;1.40;;;18.90;99.90;;;;;;5094057;28;20052;-63
2023/08/27 05:22:05;;;;;;;2.20;1.45;;;19.00;99.90;;;;;;5076125;28;20054;-63
2023/08/27 05:24:31;;;;;;;1.50;1.35;;;19.00;99.90;;;;;;5076129;28;20032;-63
2023/08/27 05:26:56;;;;;;;3.70;1.60;;;19.00;99.90;;;;;;5076009;28;20031;-63
2023/08/27 05:29:22;;;;;;;5.47;1.48;;;19.10;99.90;;;;;;5076011;28;20047;-63
2023/08/27 05:31:48;;;;;;;3.67;1.45;;;19.00;99.90;;;;;;5093839;28;20027;-63
2023/08/27 05:34:14;;;;;;;2.13;1.45;;;19.00;99.90;;;;;;5075936;28;20047;-63
2023/08/27 05:36:40;;;;;;;2.67;1.52;;;19.00;99.90;;;;;;5094029;28;20056;-63
2023/08/27 05:39:06;;;;;;;2.58;1.88;;;19.00;99.90;;;;;;5076283;28;20436;-63
2023/08/27 05:41:31;;;;;;;5.80;1.45;;;19.00;99.90;;;;;;5094103;28;20067;-63
2023/08/27 05:43:57;;;;;;;4.13;1.33;;;19.00;99.90;;;;;;5094127;28;20020;-63
2023/08/27 05:46:23;;;;;;;6.20;1.80;;;19.00;99.90;;;;;;5093898;28;20477;-63
2023/08/27 05:48:49;;;;;;;4.25;1.85;;;19.00;99.90;;;;;;5093902;28;20028;-63
2023/08/27 05:51:15;;;;;;;2.88;1.52;;;19.10;99.90;;;;;;5094406;28;20052;-63
2023/08/27 05:53:42;;;;;;;3.13;1.40;;;19.20;99.90;;;;;;5075985;28;20077;-63
2023/08/27 05:56:07;;;;;;;1.77;1.50;;;19.20;99.90;;;;;;5094131;28;20132;-63
2023/08/27 05:58:33;;;;;;;5.63;1.48;;;19.20;99.90;;;;;;5075710;28;20553;-63
2023/08/27 06:00:58;;;;;;;3.47;1.60;;;19.30;99.90;;;;;;5097606;28;20492;-63
2023/08/27 06:03:25;;;;;;;5.00;1.40;;;19.30;99.90;;;;;;5097899;28;20113;-63
2023/08/27 06:05:51;;;;;;;7.18;1.67;;;19.40;99.90;;;;;;5098014;28;20412;-63
2023/08/27 06:08:16;;;;;;;2.08;1.65;;;19.50;99.90;;;;;;5097972;28;20031;-63
2023/08/27 06:10:42;;;;;;;1.75;1.35;;;19.50;99.90;;;;;;5097587;28;20032;-63
2023/08/27 06:13:07;;;;;;;2.75;1.33;;;19.60;99.90;;;;;;5097462;28;20060;-63
2023/08/27 06:15:37;;;;;;;2.92;1.80;;;19.80;99.90;;;;;;5097772;28;20106;-63
2023/08/27 06:18:04;;;;;;;2.42;1.85;;;19.90;99.90;;;;;;5079602;28;20020;-64
2023/08/27 06:20:30;;;;;;;2.92;1.67;;;20.00;99.90;;;;;;5097779;28;20043;-64
2023/08/27 06:22:57;;;;;;;3.20;1.70;;;20.20;99.90;;;;;;5079832;28;20028;-63
2023/08/27 06:25:23;;;;;;;6.35;1.67;;;20.30;99.90;;;;;;5097485;28;20107;-63
2023/08/27 06:27:49;;;;;;;6.57;1.50;;;20.70;99.90;;;;;;5098102;28;20492;-63
2023/08/27 06:30:15;;;;;;;1.65;1.48;;;20.80;99.90;;;;;;5097437;28;20036;-63
2023/08/27 06:32:40;;;;;;;3.60;1.50;;;21.00;99.90;;;;;;5097523;28;20020;-72
2023/08/27 06:35:06;;;;;;;2.60;1.80;;;21.00;99.90;;;;;;5097782;28;20031;-77
2023/08/27 06:37:32;;;;;;;2.38;1.63;;;21.10;99.90;;;;;;5098245;28;20154;-76
2023/08/27 06:39:57;;;;;;;2.42;1.50;;;21.30;99.90;;;;;;5098251;28;20032;-76
2023/08/27 06:42:23;;;;;;;2.25;1.70;;;21.40;99.90;;;;;;5080749;28;20032;-76
2023/08/27 06:44:48;;;;;;;3.80;1.30;;;21.70;99.90;;;;;;5099688;28;20035;-77
2023/08/27 06:47:14;;;;;;;3.83;1.52;;;22.20;99.90;;;;;;5081458;28;20436;-76
2023/08/27 06:49:40;;;;;;;2.17;1.58;;;22.40;99.90;;;;;;5080027;28;20044;-76
2023/08/27 06:52:06;;;;;;;3.15;1.20;;;22.70;99.90;;;;;;5098125;28;20419;-76
2023/08/27 06:54:31;;;;;;;3.00;1.50;;;23.10;99.90;;;;;;5096309;28;20024;-76
2023/08/27 06:56:57;;;;;;;2.15;0.90;;;23.40;99.90;;;;;;5097269;28;20024;-74
2023/08/27 06:59:22;;;;;;;2.92;1.40;;;24.20;99.90;;;;;;5078505;28;20074;-74
2023/08/27 07:01:48;;;;;;;3.25;1.30;;;24.80;99.90;;;;;;5079234;28;20032;-72
2023/08/27 07:04:14;;;;;;;6.10;1.95;;;25.30;99.90;;;;;;5078771;28;20020;-69
2023/08/27 07:06:39;;;;;;;3.30;1.50;;;25.90;99.90;;;;;;5096751;28;20028;-74
2023/08/27 07:09:05;;;;;;;2.80;1.13;;;26.00;99.90;;;;;;5097119;28;20036;-75
2023/08/27 07:11:32;;;;;;;3.38;1.88;;;25.70;99.90;;;;;;5077529;28;20028;-64
2023/08/27 07:13:58;;;;;;;2.05;1.75;;;25.40;99.90;;;;;;5096796;28;20038;-63
2023/08/27 07:16:23;;;;;;;3.15;1.50;;;25.30;99.90;;;;;;5096285;28;20028;-63
2023/08/27 07:18:49;;;;;;;4.22;1.90;;;25.30;99.90;;;;;;5078176;28;20028;-63
2023/08/27 07:21:14;;;;;;;4.53;1.70;;;25.40;99.90;;;;;;5096576;28;20032;-63
2023/08/27 07:23:40;;;;;;;2.08;1.63;;;25.40;99.90;;;;;;5096009;28;20499;-63
2023/08/27 07:26:06;;;;;;;1.42;1.33;;;25.20;99.90;;;;;;5078189;28;20028;-63
2023/08/27 07:28:32;;;;;;;3.53;1.80;;;25.10;99.90;;;;;;5095985;28;20020;-63
2023/08/27 07:30:57;;;;;;;2.92;1.75;;;25.20;99.90;;;;;;5078033;28;20024;-69
2023/08/27 07:33:23;;;;;;;3.08;1.70;;;25.60;99.90;;;;;;5096163;28;20024;-69
2023/08/27 07:35:49;;;;;;;2.05;1.48;;;26.10;99.90;;;;;;5096402;28;20028;-64
2023/08/27 07:38:15;;;;;;;2.08;1.40;;;26.40;99.00;;;;;;5096449;28;20036;-64
2023/08/27 07:40:41;;;;;;;4.05;1.85;;;26.30;98.80;;;;;;5096037;28;20032;-64
2023/08/27 07:43:07;;;;;;;2.13;1.15;;;26.30;98.90;;;;;;5077715;28;20081;-65
2023/08/27 07:45:33;;;;;;;4.13;2.22;;;26.20;98.40;;;;;;5078358;28;20138;-67
2023/08/27 07:47:59;;;;;;;2.63;1.40;;;26.00;98.40;;;;;;5078156;28;20036;-66
2023/08/27 07:50:28;;;;;;;2.30;1.30;;;25.70;98.80;;;;;;5077766;28;20048;-63
2023/08/27 07:52:53;;;;;;;2.53;1.50;;;25.90;98.80;;;;;;5077318;28;20035;-63
2023/08/27 07:55:20;;;;;;;3.05;1.40;;;26.00;98.60;;;;;;5077603;28;20439;-64
2023/08/27 07:57:45;;;;;;;1.48;1.20;;;26.00;98.20;;;;;;5077654;28;20492;-64
2023/08/27 08:00:13;;;;;;;1.50;1.40;;;26.10;98.30;;;;;;5077683;28;20035;-64
2023/08/27 08:02:40;;;;;;;2.03;1.40;;;26.60;98.10;;;;;;5095671;28;20028;-64
2023/08/27 08:05:06;;;;;;;3.72;1.50;;;27.20;97.10;;;;;;5077401;28;20034;-64
2023/08/27 08:07:34;;;;;;;3.13;1.40;;;27.40;95.80;;;;;;5095509;28;20024;-64
2023/08/27 08:10:00;;;;;;;1.17;1.10;;;27.40;95.50;;;;;;5095534;28;20441;-65
2023/08/27 08:12:25;;;;;;;4.97;1.55;;;27.40;94.80;;;;;;5095659;28;20056;-65
2023/08/27 08:14:52;;;;;;;9.85;1.83;;;27.90;94.60;;;;;;5077422;28;20058;-65
2023/08/27 08:17:18;;;;;;;1.88;1.40;;;28.40;93.40;;;;;;5077413;28;20028;-66
2023/08/27 08:19:44;;;;;;;1.25;0.98;;;28.80;92.40;;;;;;5095270;28;20031;-66
2023/08/27 08:22:10;;;;;;;2.08;1.42;;;29.20;91.60;;;;;;5095328;28;20024;-67
2023/08/27 08:24:36;;;;;;;3.22;1.50;;;29.60;90.90;;;;;;5095376;28;20458;-66
2023/08/27 08:27:04;;;;;;;1.85;1.05;;;30.30;88.80;;;;;;5096484;28;20024;-66
2023/08/27 08:29:33;;;;;;;2.58;1.40;;;30.60;88.20;;;;;;5095841;28;20077;-66
2023/08/27 08:31:59;;;;;;;1.63;1.48;;;31.10;84.20;;;;;;5077283;28;20028;-66
2023/08/27 08:34:27;;;;;;;2.92;1.40;;;31.20;82.50;;;;;;5095680;28;20024;-66
2023/08/27 08:36:53;;;;;;;2.53;1.20;;;31.00;81.00;;;;;;5077197;28;20028;-71
2023/08/27 08:39:19;;;;;;;3.08;1.65;;;31.00;80.80;;;;;;5076848;28;20038;-70
2023/08/27 08:41:57;;;;;;;2.25;1.35;;;30.90;80.00;;;;;;5095179;28;20496;-69
2023/08/27 08:44:38;;;;;;;2.30;1.60;;;31.20;80.00;;;;;;5095752;28;20481;-69
2023/08/27 08:47:08;;;;;;;1.98;1.70;;;30.30;80.10;;;;;;5095141;28;20052;-69
2023/08/27 08:49:38;;;;;;;6.28;2.17;;;30.00;82.10;;;;;;5094744;28;20054;-69
2023/08/27 08:52:07;;;;;;;3.25;1.50;;;29.90;82.30;;;;;;5094917;28;20053;-70
2023/08/27 08:54:36;;;;;;;2.50;1.48;;;29.60;82.60;;;;;;5077377;28;20020;-70
2023/08/27 08:57:04;;;;;;;4.03;1.67;;;29.20;83.40;;;;;;5095277;28;20020;-70
2023/08/27 08:59:32;;;;;;;3.22;1.30;;;29.40;83.40;;;;;;5077812;28;20504;-72
2023/08/27 09:01:59;;;;;;;3.10;1.48;;;30.20;82.30;;;;;;5106087;28;20020;-70
2023/08/27 09:04:25;;;;;;;4.35;1.70;;;30.30;81.10;;;;;;5086324;28;20036;-70
2023/08/27 09:06:53;;;;;;;4.78;2.38;;;30.10;80.80;;;;;;5099542;28;20056;-72
2023/08/27 09:09:21;;;;;;;4.60;1.67;;;29.20;81.60;;;;;;5099853;28;20489;-69
2023/08/27 09:11:49;;;;;;;1.33;1.20;;;28.40;83.90;;;;;;5080069;28;20050;-69
2023/08/27 09:14:15;;;;;;;2.58;1.30;;;28.00;85.50;;;;;;5077270;28;20032;-69
2023/08/27 09:16:41;;;;;;;1.25;1.15;;;27.70;88.00;;;;;;5076442;28;20081;-69
2023/08/27 09:19:06;;;;;;;2.33;1.30;;;27.80;87.10;;;;;;5094090;28;20027;-70
2023/08/27 09:21:34;;;;;;;3.58;1.30;;;27.90;87.70;;;;;;5094359;28;20027;-69
2023/08/27 09:24:00;;;;;;;3.10;1.33;;;28.40;87.10;;;;;;5093948;28;20111;-70
2023/08/27 09:26:25;;;;;;;2.25;1.30;;;28.90;85.20;;;;;;5094176;28;20502;-69
2023/08/27 09:28:51;;;;;;;2.17;1.70;;;29.60;82.90;;;;;;5094337;28;20055;-70
2023/08/27 09:31:57;;;;;;;3.38;1.30;;;30.20;82.20;;;;;;5093970;28;20020;-70
2023/08/27 09:34:22;;;;;;;2.80;1.33;;;31.50;79.00;;;;;;4975675;28;20026;-70
2023/08/27 09:36:49;;;;;;;3.95;1.98;;;32.30;77.30;;;;;;4992161;28;20027;-70
2023/08/27 09:39:15;;;;;;;1.15;1.05;;;33.00;74.80;;;;;;4992354;28;20173;-70
2023/08/27 09:41:42;;;;;;;2.53;1.15;;;33.00;72.30;;;;;;4992682;28;20072;-70
2023/08/27 09:44:09;;;;;;;1.40;1.15;;;31.90;73.00;;;;;;4992790;28;20074;-70
2023/08/27 09:46:36;;;;;;;2.50;1.05;;;32.00;74.30;;;;;;4977155;28;20034;-71
2023/08/27 09:49:06;;;;;;;2.45;1.10;;;32.40;73.10;;;;;;4994182;28;20121;-70
2023/08/27 09:51:33;;;;;;;2.17;1.38;;;32.50;71.30;;;;;;4993777;28;20049;-70
2023/08/27 09:53:59;;;;;;;3.55;1.02;;;33.40;69.50;;;;;;4993015;28;20038;-70
2023/08/27 09:56:26;;;;;;;1.55;0.80;;;34.10;68.50;;;;;;4976884;28;20038;-70
2023/08/27 09:58:53;;;;;;;3.42;1.10;;;33.90;67.10;;;;;;4976652;28;20069;-70
2023/08/27 10:01:23;;;;;;;2.97;1.20;;;33.40;68.60;;;;;;4976175;28;20081;-70
2023/08/27 10:03:49;;;;;;;4.45;1.00;;;33.10;69.60;;;;;;4975908;28;20031;-70
2023/08/27 10:06:14;;;;;;;2.35;1.50;;;32.50;69.50;;;;;;5090603;28;20054;-70
2023/08/27 10:08:51;;;;;;;6.13;1.58;;;33.30;68.80;;;;;;5093771;28;20546;-71
2023/08/27 10:11:22;;;;;;;1.30;1.20;;;33.80;66.70;;;;;;5075751;28;20028;-68
2023/08/27 10:13:48;;;;;;;1.65;1.38;;;33.20;68.40;;;;;;5075946;28;20381;-69
2023/08/27 10:16:15;;;;;;;1.85;1.60;;;32.90;69.10;;;;;;5093914;28;20047;-69
2023/08/27 10:18:41;;;;;;;1.90;1.80;;;32.80;68.70;;;;;;5075795;28;20430;-68
2023/08/27 10:21:10;;;;;;;5.28;2.00;;;32.60;70.00;;;;;;5075686;28;20028;-68
2023/08/27 10:23:39;;;;;;;1.95;1.85;;;32.80;68.70;;;;;;5093336;28;20040;-76
2023/08/27 10:26:05;;;;;;;;;;;32.30;68.80;;;;;;5093941;28;20415;-76
2023/08/27 10:28:33;;;;;;;4.85;2.60;;;32.20;68.40;;;;;;5093227;28;20423;-76
2023/08/27 10:30:59;;;;;;;;;;;31.90;70.60;;;;;;5075735;28;20036;-76
2023/08/27 10:33:24;;;;;;;3.72;2.65;;;32.00;71.10;;;;;;5075547;28;19911;-75
2023/08/27 10:35:52;;;;;;;2.13;1.95;;;32.20;70.60;;;;;;5093143;28;20503;-76
2023/08/27 10:38:20;;;;;;;3.08;2.08;;;32.60;70.50;;;;;;5093637;28;20027;-76
2023/08/27 10:40:46;;;;;;;3.35;3.00;;;32.60;69.80;;;;;;5075496;28;20036;-78
2023/08/27 10:43:20;;;;;;;2.90;2.50;;;32.80;69.20;;;;;;5094001;28;20485;-77
2023/08/27 10:45:48;;;;;;;2.92;2.60;;;32.60;69.00;;;;;;5095267;28;20031;-78
2023/08/27 10:48:22;;;;;;;2.77;2.57;;;32.80;70.00;;;;;;5097267;28;20031;-78
2023/08/27 10:50:54;;;;;;;2.90;2.70;;;32.40;68.80;;;;;;5078842;28;20482;-78
2023/08/27 10:53:20;;;;;;;3.08;2.80;;;32.30;70.60;;;;;;5097469;28;20077;-76
2023/08/27 10:55:51;;;;;;;2.83;2.58;;;32.40;70.80;;;;;;5100078;28;20016;-76
2023/08/27 10:58:24;;;;;;;2.65;2.45;;;32.20;71.20;;;;;;5100165;28;20476;-79
2023/08/27 11:00:56;;;;;;;2.00;1.90;;;31.80;72.70;;;;;;5099789;28;20366;-77
2023/08/27 11:03:22;;;;;;;4.13;1.98;;;31.10;75.60;;;;;;5081634;28;20073;-76
2023/08/27 11:06:11;;;;;;;3.33;2.05;;;31.30;76.90;;;;;;5097640;28;20024;-80
2023/08/27 11:08:37;;;;;;;5.57;2.60;;;31.00;77.50;;;;;;5078981;28;20045;-76
2023/08/27 11:11:15;;;;;;;4.47;1.98;;;30.40;78.90;;;;;;5079123;28;20024;-76
2023/08/27 11:13:41;;;;;;;;;;;30.50;79.30;;;;;;5097732;28;20024;-77
2023/08/27 11:16:17;;;;;;;3.08;2.17;;;30.30;80.20;;;;;;5097020;28;19973;-76
2023/08/27 11:18:52;;;;;;;3.60;2.50;;;30.90;80.20;;;;;;5096754;28;20031;-76
2023/08/27 11:21:37;;;;;;;4.30;2.20;;;31.20;78.80;;;;;;5096648;28;20074;-77
2023/08/27 11:24:12;;;;;;;3.92;3.13;;;30.60;79.80;;;;;;5096672;28;20032;-77
2023/08/27 11:26:39;;;;;;;2.83;2.17;;;30.10;81.40;;;;;;5078354;28;20024;-76
2023/08/27 11:29:08;;;;;;;5.35;2.30;;;30.20;81.30;;;;;;5096415;28;20035;-75
2023/08/27 11:31:33;;;;;;;4.40;2.30;;;30.40;80.60;;;;;;5096415;28;20024;-76
2023/08/27 11:34:02;;;;;;;3.85;2.25;;;30.20;81.50;;;;;;5096384;28;20430;-76
2023/08/27 11:36:28;;;;;;;4.00;2.25;;;30.50;80.90;;;;;;5078100;28;20047;-76
2023/08/27 11:39:05;;;;;;;2.53;2.10;;;30.70;79.80;;;;;;5077920;28;20020;-76
2023/08/27 11:41:38;;;;;;;2.88;2.28;;;30.60;79.90;;;;;;5096079;28;20035;-77
2023/08/27 11:44:05;;;;;;;4.68;2.47;;;30.60;79.80;;;;;;5095934;28;20028;-78
2023/08/27 11:46:31;;;;;;;3.45;2.65;;;30.50;80.00;;;;;;5077935;28;20444;-75
2023/08/27 11:48:57;;;;;;;3.35;2.10;;;29.60;80.30;;;;;;5078170;28;20028;-77
2023/08/27 11:51:23;;;;;;;3.35;2.75;;;29.00;83.90;;;;;;5095985;28;20040;-76
2023/08/27 11:53:51;;;;;;;6.53;2.80;;;28.90;84.20;;;;;;5096248;28;20020;-79
2023/08/27 11:56:17;;;;;;;4.57;2.70;;;28.00;84.10;;;;;;5095615;28;20031;-84
2023/08/27 11:58:44;;;;;;;5.30;2.53;;;27.40;85.80;;;;;;5078557;28;20055;-84
2023/08/27 12:01:10;;;;;;;3.83;2.97;;;27.40;87.80;;;;;;5097093;28;20039;-86
2023/08/27 12:03:38;;;;;;;3.47;2.92;;;27.40;84.70;;;;;;5096023;28;20020;-78
2023/08/27 12:06:04;;;;;;;3.70;2.90;;;27.70;85.60;;;;;;5096132;28;20070;-77
2023/08/27 12:08:35;;;;;;;2.67;2.47;;;27.90;84.00;;;;;;5095423;28;20020;-79
2023/08/27 12:11:02;;;;;;;4.43;2.92;;;28.60;83.50;;;;;;5095955;28;20031;-78
2023/08/27 12:13:28;;;;;;;4.15;2.80;;;29.20;81.40;;;;;;5096118;28;20020;-81
2023/08/27 12:15:54;;;;;;;4.88;2.85;;;29.80;78.60;;;;;;5095798;28;20031;-77
2023/08/27 12:18:20;;;;;;;4.45;2.63;;;29.70;78.60;;;;;;5095964;28;20107;-80
2023/08/27 12:20:49;;;;;;;4.03;2.85;;;29.20;79.20;;;;;;5095656;28;20059;-78
2023/08/27 12:23:15;;;;;;;4.03;2.80;;;28.60;80.60;;;;;;5078079;28;20389;-78
2023/08/27 12:25:46;;;;;;;4.57;3.00;;;28.30;81.00;;;;;;5077843;28;20115;-77
2023/08/27 12:28:11;;;;;;;6.53;3.70;;;28.10;82.80;;;;;;5095182;28;20595;-74
2023/08/27 12:30:37;;;;;;;5.43;3.28;;;28.10;81.20;;;;;;5095524;28;20107;-76
2023/08/27 12:33:04;;;;;;;3.53;2.88;;;27.90;81.70;;;;;;5095199;28;20099;-76
2023/08/27 12:35:29;;;;;;;4.60;2.85;;;27.80;82.00;;;;;;5095308;28;20150;-73
2023/08/27 12:37:55;;;;;;;4.10;3.63;;;28.20;81.00;;;;;;5077906;28;20486;-73
2023/08/27 12:40:21;;;;;;;4.47;2.35;;;28.20;81.00;;;;;;5095361;28;20085;-74
2023/08/27 12:42:47;;;;;;;4.00;3.08;;;29.00;80.30;;;;;;5076980;28;20055;-73
2023/08/27 12:45:13;;;;;;;3.67;2.90;;;29.80;78.40;;;;;;5095334;28;20030;-72
2023/08/27 12:47:38;;;;;;;4.22;2.70;;;30.30;76.60;;;;;;5076864;28;20469;-72